createdAt,value
2022-11-13T00:00:01.707Z,101990.50
2022-11-13T00:02:28.708Z,101988.88
2022-11-13T00:04:55.816Z,101983.06
2022-11-13T00:07:23.208Z,101984.50
2022-11-13T00:09:50.422Z,101992.25
2022-11-13T00:12:18.659Z,101991.72
2022-11-13T00:14:45.465Z,101991.19
2022-11-13T00:17:12.446Z,101987.53
2022-11-13T00:19:39.498Z,101989.97
2022-11-13T00:22:06.306Z,101987.34
2022-11-13T00:24:35.393Z,101990.28
2022-11-13T00:27:02.528Z,101987.88
2022-11-13T00:29:29.346Z,101988.12
2022-11-13T00:31:58.108Z,101988.00
2022-11-13T00:34:46.509Z,101996.44
2022-11-13T00:37:12.194Z,101986.41
2022-11-13T00:39:38.958Z,101994.41
2022-11-13T00:42:05.860Z,101983.16
2022-11-13T00:44:33.818Z,101982.63
2022-11-13T00:47:00.611Z,101985.63
2022-11-13T00:49:27.638Z,101985.09
2022-11-13T00:51:55.102Z,101984.41
2022-11-13T00:54:22.180Z,101983.84
2022-11-13T00:56:49.138Z,101984.19
2022-11-13T00:59:15.918Z,101983.44
2022-11-13T01:02:02.837Z,101982.09
2022-11-13T01:04:30.276Z,101981.94
2022-11-13T01:06:57.096Z,101988.28
2022-11-13T01:09:24.432Z,101985.03
2022-11-13T01:11:52.365Z,101986.16
2022-11-13T01:14:20.091Z,101974.22
2022-11-13T01:16:47.025Z,101972.66
2022-11-13T01:19:14.112Z,101969.37
2022-11-13T01:21:45.411Z,101977.88
2022-11-13T01:24:13.347Z,101976.75
2022-11-13T01:26:59.611Z,101978.13
2022-11-13T01:29:27.616Z,101970.97
2022-11-13T01:31:54.654Z,101974.56
2022-11-13T01:34:21.468Z,101972.66
2022-11-13T01:36:48.886Z,101964.16
2022-11-13T01:39:16.102Z,101964.41
2022-11-13T01:41:43.038Z,101958.25
2022-11-13T01:44:19.987Z,101951.66
2022-11-13T01:47:06.885Z,101943.38
2022-11-13T01:49:37.156Z,101946.75
2022-11-13T01:52:07.549Z,101955.75
2022-11-13T01:55:03.661Z,101950.66
2022-11-13T01:57:30.993Z,101935.25
2022-11-13T02:00:00.959Z,101938.03
2022-11-13T02:02:27.838Z,101929.88
2022-11-13T02:05:03.798Z,101933.72
2022-11-13T02:07:30.999Z,101933.59
2022-11-13T02:10:09.152Z,101930.97
2022-11-13T02:12:36.816Z,101942.41
2022-11-13T02:15:25.835Z,101937.88
2022-11-13T02:17:57.985Z,101948.69
2022-11-13T02:20:58.325Z,101941.13
2022-11-13T02:23:25.219Z,101942.97
2022-11-13T02:25:53.767Z,101944.12
2022-11-13T02:28:21.166Z,101944.63
2022-11-13T02:30:47.947Z,101941.91
2022-11-13T02:33:30.681Z,101935.66
2022-11-13T02:35:57.626Z,101918.41
2022-11-13T02:38:24.252Z,101924.50
2022-11-13T02:40:51.122Z,101922.47
2022-11-13T02:43:17.847Z,101927.81
2022-11-13T02:45:44.650Z,101922.16
2022-11-13T02:48:11.464Z,101922.16
2022-11-13T02:50:38.902Z,101924.22
2022-11-13T02:53:10.145Z,101918.19
2022-11-13T02:55:37.596Z,101926.94
2022-11-13T02:58:04.614Z,101933.00
2022-11-13T03:00:31.594Z,101931.09
2022-11-13T03:02:58.383Z,101929.84
2022-11-13T03:05:29.370Z,101928.75
2022-11-13T03:07:56.297Z,101934.16
2022-11-13T03:10:27.450Z,101936.69
2022-11-13T03:13:12.231Z,101923.91
2022-11-13T03:15:40.434Z,101927.28
2022-11-13T03:18:08.058Z,101937.00
2022-11-13T03:20:40.829Z,101944.25
2022-11-13T03:23:07.570Z,101931.69
2022-11-13T03:25:36.971Z,101929.66
2022-11-13T03:28:03.816Z,101924.87
2022-11-13T03:30:31.290Z,101927.03
2022-11-13T03:32:58.623Z,101930.28
2022-11-13T03:35:41.826Z,101928.94
2022-11-13T03:38:11.194Z,101926.53
2022-11-13T03:40:38.394Z,101926.91
2022-11-13T03:43:05.714Z,101932.72
2022-11-13T03:45:33.107Z,101933.28
2022-11-13T03:48:00.035Z,101919.38
2022-11-13T03:50:27.352Z,101925.28
2022-11-13T03:52:54.585Z,101938.22
2022-11-13T03:55:21.421Z,101938.13
2022-11-13T03:57:48.343Z,101933.59
2022-11-13T04:00:15.483Z,101930.28
2022-11-13T04:02:42.454Z,101931.25
2022-11-13T04:05:09.465Z,101936.81
2022-11-13T04:07:38.503Z,101933.31
2022-11-13T04:10:07.456Z,101942.00
2022-11-13T04:12:34.442Z,101931.91
2022-11-13T04:15:01.464Z,101930.47
2022-11-13T04:17:28.272Z,101930.69
2022-11-13T04:19:55.107Z,101922.34
2022-11-13T04:22:21.992Z,101925.22
2022-11-13T04:24:48.754Z,101925.97
2022-11-13T04:27:16.138Z,101928.09
2022-11-13T04:29:42.974Z,101916.25
2022-11-13T04:32:14.480Z,101920.16
2022-11-13T04:34:41.494Z,101916.25
2022-11-13T04:37:15.958Z,101916.81
2022-11-13T04:39:42.795Z,101919.16
2022-11-13T04:42:30.602Z,101906.72
2022-11-13T04:44:57.325Z,101911.06
2022-11-13T04:47:29.844Z,101912.31
2022-11-13T04:49:57.774Z,101904.13
2022-11-13T04:52:24.906Z,101905.50
2022-11-13T04:54:52.013Z,101899.84
2022-11-13T04:57:19.354Z,101900.78
2022-11-13T05:00:07.207Z,101897.41
2022-11-13T05:02:34.607Z,101892.47
2022-11-13T05:05:04.955Z,101892.34
2022-11-13T05:07:48.736Z,101891.84
2022-11-13T05:10:20.441Z,101896.31
2022-11-13T05:12:50.142Z,101906.25
2022-11-13T05:15:17.304Z,101901.44
2022-11-13T05:17:44.326Z,101905.59
2022-11-13T05:20:11.946Z,101905.44
2022-11-13T05:22:38.952Z,101903.22
2022-11-13T05:25:06.006Z,101903.69
2022-11-13T05:27:33.185Z,101907.97
2022-11-13T05:30:00.047Z,101898.69
2022-11-13T05:32:27.947Z,101905.75
2022-11-13T05:34:54.857Z,101897.87
2022-11-13T05:37:22.115Z,101907.22
2022-11-13T05:39:48.958Z,101901.31
2022-11-13T05:42:16.141Z,101904.19
2022-11-13T05:44:42.968Z,101898.91
2022-11-13T05:47:30.004Z,101903.09
2022-11-13T05:50:01.646Z,101887.47
2022-11-13T05:52:28.564Z,101892.81
2022-11-13T05:54:55.961Z,101885.00
2022-11-13T05:57:22.999Z,101890.34
2022-11-13T05:59:50.228Z,101893.00
2022-11-13T06:02:17.793Z,101887.84
2022-11-13T06:04:45.098Z,101891.59
2022-11-13T06:07:11.995Z,101898.31
2022-11-13T06:09:41.318Z,101903.91
2022-11-13T06:12:26.339Z,101901.34
2022-11-13T06:14:57.824Z,101909.69
2022-11-13T06:17:25.169Z,101918.28
2022-11-13T06:19:53.388Z,101925.03
2022-11-13T06:22:20.089Z,101922.06
2022-11-13T06:24:48.974Z,101923.72
2022-11-13T06:27:15.690Z,101930.31
2022-11-13T06:30:02.588Z,101929.34
2022-11-13T06:32:53.676Z,101920.59
2022-11-13T06:35:20.729Z,101936.56
2022-11-13T06:37:56.473Z,101938.91
2022-11-13T06:40:24.825Z,101943.66
2022-11-13T06:42:52.796Z,101949.47
2022-11-13T06:45:19.740Z,101946.94
2022-11-13T06:47:46.502Z,101947.41
2022-11-13T06:50:13.337Z,101947.97
2022-11-13T06:52:40.220Z,101942.75
2022-11-13T06:55:07.772Z,101930.19
2022-11-13T06:57:34.574Z,101929.94
2022-11-13T07:00:01.239Z,101925.03
2022-11-13T07:02:28.266Z,101919.19
2022-11-13T07:04:57.740Z,101912.06
2022-11-13T07:07:24.528Z,101925.53
2022-11-13T07:09:51.320Z,101926.34
2022-11-13T07:12:18.226Z,101926.34
2022-11-13T07:14:45.167Z,101926.00
2022-11-13T07:17:11.876Z,101925.16
2022-11-13T07:19:38.746Z,101926.09
2022-11-13T07:22:05.485Z,101925.06
2022-11-13T07:24:32.483Z,101927.00
2022-11-13T07:26:59.301Z,101919.69
2022-11-13T07:29:26.125Z,101911.72
2022-11-13T07:31:53.722Z,101917.97
2022-11-13T07:34:20.661Z,101919.28
2022-11-13T07:36:47.507Z,101924.84
2022-11-13T07:39:14.442Z,101927.44
2022-11-13T07:41:41.291Z,101922.28
2022-11-13T07:44:09.475Z,101921.78
2022-11-13T07:46:55.440Z,101919.41
2022-11-13T07:49:42.366Z,101927.00
2022-11-13T07:52:11.328Z,101927.03
2022-11-13T07:54:38.197Z,101928.16
2022-11-13T07:57:04.988Z,101931.28
2022-11-13T07:59:31.645Z,101932.53
2022-11-13T08:01:59.027Z,101924.38
2022-11-13T08:04:25.660Z,101936.22
2022-11-13T08:06:52.684Z,101930.97
2022-11-13T08:09:19.585Z,101931.84
2022-11-13T08:11:46.504Z,101939.22
2022-11-13T08:14:13.281Z,101937.50
2022-11-13T08:16:40.151Z,101937.50
2022-11-13T08:19:07.019Z,101937.09
2022-11-13T08:21:35.053Z,101938.41
2022-11-13T08:24:01.818Z,101940.88
2022-11-13T08:26:28.721Z,101945.03
2022-11-13T08:28:55.395Z,101943.66
2022-11-13T08:31:22.116Z,101938.50
2022-11-13T08:33:48.763Z,101946.56
2022-11-13T08:36:15.543Z,101943.78
2022-11-13T08:38:42.449Z,101937.78
2022-11-13T08:41:09.860Z,101931.94
2022-11-13T08:43:36.681Z,101932.13
2022-11-13T08:46:03.391Z,101935.72
2022-11-13T08:48:30.615Z,101939.97
2022-11-13T08:50:57.792Z,101938.00
2022-11-13T08:53:25.406Z,101940.00
2022-11-13T08:55:52.613Z,101938.16
2022-11-13T08:58:19.694Z,101930.06
2022-11-13T09:00:46.677Z,101927.88
2022-11-13T09:03:13.361Z,101922.00
2022-11-13T09:05:41.083Z,101931.06
2022-11-13T09:08:08.007Z,101923.88
2022-11-13T09:10:35.041Z,101922.84
2022-11-13T09:13:04.501Z,101923.75
2022-11-13T09:15:32.825Z,101925.88
2022-11-13T09:18:00.595Z,101925.75
2022-11-13T09:20:27.938Z,101920.12
2022-11-13T09:22:59.131Z,101921.91
2022-11-13T09:25:26.445Z,101918.41
2022-11-13T09:27:54.782Z,101929.06
2022-11-13T09:30:22.519Z,101914.25
2022-11-13T09:32:52.982Z,101909.75
2022-11-13T09:35:33.965Z,101904.78
2022-11-13T09:38:04.180Z,101904.09
2022-11-13T09:40:40.160Z,101898.13
2022-11-13T09:43:11.894Z,101884.03
2022-11-13T09:45:40.566Z,101882.16
2022-11-13T09:48:22.576Z,101878.63
2022-11-13T09:50:49.593Z,101867.13
2022-11-13T09:53:16.947Z,101867.66
2022-11-13T09:56:10.070Z,101854.34
2022-11-13T09:58:45.733Z,101848.25
2022-11-13T10:01:16.304Z,101853.28
2022-11-13T10:04:05.243Z,101852.62
2022-11-13T10:06:40.011Z,101845.47
2022-11-13T10:09:26.282Z,101834.59
2022-11-13T10:12:03.394Z,101836.81
2022-11-13T10:14:30.070Z,101833.19
2022-11-13T10:17:00.758Z,101834.34
2022-11-13T10:19:31.589Z,101827.47
2022-11-13T10:22:34.573Z,101834.63
2022-11-13T10:25:09.909Z,101830.22
2022-11-13T10:27:36.761Z,101817.69
2022-11-13T10:30:04.472Z,101826.31
2022-11-13T10:32:32.924Z,101815.06
2022-11-13T10:35:06.006Z,101807.03
2022-11-13T10:37:32.717Z,101812.19
2022-11-13T10:39:59.528Z,101802.03
2022-11-13T10:42:30.244Z,101792.38
2022-11-13T10:44:58.703Z,101783.72
2022-11-13T10:48:01.998Z,101782.75
2022-11-13T10:50:24.033Z,101780.31
2022-11-13T10:52:52.009Z,101792.25
2022-11-13T10:55:21.842Z,101791.34
2022-11-13T10:57:56.647Z,101790.56
2022-11-13T11:00:25.424Z,101780.84
2022-11-13T11:02:52.100Z,101775.50
2022-11-13T11:05:20.266Z,101766.69
2022-11-13T11:07:46.985Z,101768.44
2022-11-13T11:10:37.063Z,101769.34
2022-11-13T11:13:11.139Z,101754.38
2022-11-13T11:15:56.589Z,101741.13
2022-11-13T11:18:33.251Z,101747.25
2022-11-13T11:21:02.755Z,101739.28
2022-11-13T11:23:43.250Z,101727.03
2022-11-13T11:26:15.999Z,101734.09
2022-11-13T11:28:52.146Z,101717.06
2022-11-13T11:31:31.065Z,101712.81
2022-11-13T11:34:10.055Z,101711.84
2022-11-13T11:36:45.864Z,101714.66
2022-11-13T11:39:12.544Z,101720.91
2022-11-13T11:41:43.457Z,101712.81
2022-11-13T11:44:25.389Z,101712.94
2022-11-13T11:46:52.114Z,101699.62
2022-11-13T11:49:20.890Z,101707.59
2022-11-13T11:51:59.829Z,101697.00
2022-11-13T11:54:41.185Z,101692.69
2022-11-13T11:57:18.527Z,101688.25
2022-11-13T11:59:56.892Z,101687.34
2022-11-13T12:02:23.523Z,101680.22
2022-11-13T12:04:54.369Z,101675.91
2022-11-13T12:07:31.323Z,101683.81
2022-11-13T12:09:58.129Z,101678.47
2022-11-13T12:12:43.538Z,101678.38
2022-11-13T12:15:23.542Z,101674.09
2022-11-13T12:17:59.742Z,101682.03
2022-11-13T12:20:46.810Z,101672.31
2022-11-13T12:23:13.518Z,101670.50
2022-11-13T12:25:40.257Z,101673.28
2022-11-13T12:28:07.015Z,101659.97
2022-11-13T12:30:49.658Z,101660.78
2022-11-13T12:33:22.555Z,101675.75
2022-11-13T12:35:51.369Z,101667.94
2022-11-13T12:38:37.309Z,101669.66
2022-11-13T12:41:03.949Z,101675.91
2022-11-13T12:43:42.919Z,101664.37
2022-11-13T12:46:11.241Z,101660.09
2022-11-13T12:48:42.782Z,101654.72
2022-11-13T12:51:11.350Z,101659.12
2022-11-13T12:53:44.990Z,101658.13
2022-11-13T12:56:16.484Z,101644.06
2022-11-13T12:59:09.548Z,101641.59
2022-11-13T13:01:44.445Z,101631.84
2022-11-13T13:04:11.492Z,101629.25
2022-11-13T13:06:50.032Z,101624.56
2022-11-13T13:09:32.398Z,101628.12
2022-11-13T13:11:59.020Z,101625.47
2022-11-13T13:14:28.811Z,101628.97
2022-11-13T13:17:05.076Z,101630.97
2022-11-13T13:19:33.005Z,101624.75
2022-11-13T13:21:59.842Z,101626.63
2022-11-13T13:24:27.493Z,101626.63
2022-11-13T13:26:54.286Z,101622.22
2022-11-13T13:29:26.914Z,101616.81
2022-11-13T13:32:20.682Z,101614.28
2022-11-13T13:35:06.320Z,101614.28
2022-11-13T13:37:41.746Z,101601.00
2022-11-13T13:40:17.127Z,101602.84
2022-11-13T13:43:07.693Z,101599.25
2022-11-13T13:45:47.945Z,101601.94
2022-11-13T13:48:17.881Z,101597.38
2022-11-13T13:50:47.187Z,101596.56
2022-11-13T13:53:17.066Z,101589.47
2022-11-13T13:55:48.830Z,101603.69
2022-11-13T13:58:18.939Z,101597.56
2022-11-13T14:01:17.323Z,101600.16
2022-11-13T14:03:42.222Z,101591.28
2022-11-13T14:06:09.845Z,101598.41
2022-11-13T14:08:36.794Z,101598.44
2022-11-13T14:11:27.385Z,101604.59
2022-11-13T14:13:54.172Z,101592.25
2022-11-13T14:16:21.020Z,101596.66
2022-11-13T14:18:48.479Z,101598.44
2022-11-13T14:21:17.495Z,101590.50
2022-11-13T14:23:46.347Z,101589.63
2022-11-13T14:26:13.616Z,101595.81
2022-11-13T14:28:53.390Z,101593.13
2022-11-13T14:31:25.109Z,101578.16
2022-11-13T14:33:51.963Z,101588.75
2022-11-13T14:36:26.042Z,101591.41
2022-11-13T14:38:53.779Z,101592.19
2022-11-13T14:41:20.777Z,101588.72
2022-11-13T14:43:51.870Z,101584.25
2022-11-13T14:46:31.115Z,101582.56
2022-11-13T14:48:58.329Z,101577.13
2022-11-13T14:51:26.974Z,101581.63
2022-11-13T14:53:58.617Z,101575.28
2022-11-13T14:56:32.436Z,101574.59
2022-11-13T14:59:15.557Z,101574.44
2022-11-13T15:01:56.437Z,101580.69
2022-11-13T15:04:23.567Z,101567.53
2022-11-13T15:06:53.738Z,101578.00
2022-11-13T15:09:20.635Z,101577.13
2022-11-13T15:11:47.337Z,101567.59
2022-11-13T15:14:15.332Z,101570.25
2022-11-13T15:16:42.890Z,101571.09
2022-11-13T15:19:29.488Z,101572.00
2022-11-13T15:24:43.813Z,101566.47
2022-11-13T15:27:13.794Z,101573.13
2022-11-13T15:29:40.489Z,101571.78
2022-11-13T15:32:09.816Z,101563.91
2022-11-13T15:34:36.846Z,101562.41
2022-11-13T15:37:09.969Z,101566.09
2022-11-13T15:39:36.837Z,101573.50
2022-11-13T15:42:05.731Z,101557.06
2022-11-13T15:44:32.580Z,101554.94
2022-11-13T15:46:59.293Z,101565.03
2022-11-13T15:49:27.859Z,101570.69
2022-11-13T15:51:54.682Z,101573.34
2022-11-13T15:54:33.122Z,101569.75
2022-11-13T15:57:01.935Z,101565.06
2022-11-13T15:59:30.538Z,101568.66
2022-11-13T16:01:58.415Z,101575.19
2022-11-13T16:04:30.163Z,101578.84
2022-11-13T16:07:06.675Z,101582.25
2022-11-13T16:09:33.481Z,101579.53
2022-11-13T16:12:01.764Z,101567.97
2022-11-13T16:14:30.644Z,101569.37
2022-11-13T16:16:58.117Z,101577.47
2022-11-13T16:19:25.891Z,101576.78
2022-11-13T16:21:54.347Z,101576.78
2022-11-13T16:24:24.288Z,101567.25
2022-11-13T16:26:56.444Z,101561.06
2022-11-13T16:29:24.239Z,101572.56
2022-11-13T16:31:51.038Z,101571.72
2022-11-13T16:34:17.763Z,101576.09
2022-11-13T16:36:45.077Z,101579.50
2022-11-13T16:39:17.450Z,101572.44
2022-11-13T16:41:44.329Z,101572.44
2022-11-13T16:44:11.071Z,101572.47
2022-11-13T16:46:39.676Z,101576.94
2022-11-13T16:49:06.711Z,101568.97
2022-11-13T16:51:33.475Z,101571.63
2022-11-13T16:54:00.210Z,101567.19
2022-11-13T16:56:31.119Z,101581.22
2022-11-13T16:58:59.252Z,101576.84
2022-11-13T17:01:28.353Z,101583.03
2022-11-13T17:03:55.190Z,101577.75
2022-11-13T17:06:28.373Z,101572.50
2022-11-13T17:09:00.738Z,101579.44
2022-11-13T17:11:45.983Z,101580.38
2022-11-13T17:14:15.020Z,101579.50
2022-11-13T17:16:44.041Z,101587.34
2022-11-13T17:19:13.539Z,101589.13
2022-11-13T17:21:44.213Z,101587.22
2022-11-13T17:24:11.579Z,101582.94
2022-11-13T17:26:47.621Z,101590.75
2022-11-13T17:29:15.776Z,101594.22
2022-11-13T17:31:42.832Z,101588.03
2022-11-13T17:34:09.614Z,101583.50
2022-11-13T17:36:39.118Z,101583.53
2022-11-13T17:39:06.989Z,101583.44
2022-11-13T17:41:35.378Z,101590.53
2022-11-13T17:44:02.126Z,101585.22
2022-11-13T17:46:29.098Z,101586.88
2022-11-13T17:48:56.093Z,101585.03
2022-11-13T17:51:23.269Z,101581.34
2022-11-13T17:53:50.345Z,101579.53
2022-11-13T17:56:18.019Z,101583.84
2022-11-13T17:58:45.544Z,101591.88
2022-11-13T18:01:16.890Z,101574.28
2022-11-13T18:03:44.091Z,101584.00
2022-11-13T18:06:13.478Z,101580.34
2022-11-13T18:08:44.562Z,101582.09
2022-11-13T18:11:22.469Z,101582.91
2022-11-13T18:13:50.678Z,101594.81
2022-11-13T18:16:23.539Z,101586.88
2022-11-13T18:18:53.856Z,101582.50
2022-11-13T18:21:23.399Z,101592.16
2022-11-13T18:23:57.901Z,101586.91
2022-11-13T18:26:26.056Z,101589.53
2022-11-13T18:28:53.070Z,101580.75
2022-11-13T18:31:20.596Z,101583.25
2022-11-13T18:33:47.534Z,101583.91
2022-11-13T18:36:16.054Z,101584.03
2022-11-13T18:38:44.258Z,101578.66
2022-11-13T18:41:16.121Z,101585.75
2022-11-13T18:43:45.116Z,101580.31
2022-11-13T18:46:15.177Z,101581.22
2022-11-13T18:48:49.370Z,101573.34
2022-11-13T18:51:17.931Z,101577.78
2022-11-13T18:54:09.599Z,101574.97
2022-11-13T18:56:37.869Z,101573.75
2022-11-13T18:59:05.879Z,101590.47
2022-11-13T19:01:36.303Z,101589.44
2022-11-13T19:06:52.840Z,101585.84
2022-11-13T19:09:20.242Z,101595.28
2022-11-13T19:11:48.586Z,101590.25
2022-11-13T19:14:16.300Z,101583.25
2022-11-13T19:16:44.762Z,101583.69
2022-11-13T19:19:16.810Z,101592.50
2022-11-13T19:22:00.033Z,101590.75
2022-11-13T19:24:27.284Z,101581.88
2022-11-13T19:26:54.467Z,101586.09
2022-11-13T19:29:21.309Z,101575.44
2022-11-13T19:31:55.092Z,101573.59
2022-11-13T19:34:21.936Z,101572.69
2022-11-13T19:36:53.322Z,101564.91
2022-11-13T19:39:21.880Z,101572.41
2022-11-13T19:41:48.866Z,101571.91
2022-11-13T19:44:18.029Z,101570.19
2022-11-13T19:46:52.866Z,101566.91
2022-11-13T19:49:23.414Z,101563.41
2022-11-13T19:51:50.933Z,101569.53
2022-11-13T19:54:18.196Z,101561.56
2022-11-13T19:56:45.467Z,101572.06
2022-11-13T19:59:12.822Z,101570.94
2022-11-13T20:01:43.879Z,101567.19
2022-11-13T20:04:34.148Z,101568.31
2022-11-13T20:07:02.135Z,101566.72
2022-11-13T20:09:29.456Z,101569.56
2022-11-13T20:11:56.402Z,101562.28
2022-11-13T20:14:23.186Z,101563.97
2022-11-13T20:16:50.842Z,101560.53
2022-11-13T20:19:18.217Z,101561.31
2022-11-13T20:21:45.441Z,101567.28
2022-11-13T20:24:14.244Z,101561.72
2022-11-13T20:26:41.059Z,101556.84
2022-11-13T20:29:08.274Z,101558.38
2022-11-13T20:31:35.569Z,101550.25
2022-11-13T20:34:02.604Z,101551.28
2022-11-13T20:36:29.353Z,101547.25
2022-11-13T20:38:57.121Z,101550.25
2022-11-13T20:41:25.148Z,101546.44
2022-11-13T20:43:55.033Z,101542.31
2022-11-13T20:46:22.111Z,101540.38
2022-11-13T20:48:49.323Z,101536.03
2022-11-13T20:51:23.606Z,101540.84
2022-11-13T20:53:51.896Z,101549.28
2022-11-13T20:56:20.358Z,101547.66
2022-11-13T20:58:47.433Z,101545.69
2022-11-13T21:01:15.713Z,101545.44
2022-11-13T21:03:43.302Z,101542.63
2022-11-13T21:06:14.708Z,101535.44
2022-11-13T21:08:41.495Z,101542.56
2022-11-13T21:11:08.671Z,101525.97
2022-11-13T21:13:35.403Z,101537.00
2022-11-13T21:16:06.143Z,101540.47
2022-11-13T21:18:43.294Z,101538.03
2022-11-13T21:21:12.677Z,101545.22
2022-11-13T21:23:39.542Z,101551.69
2022-11-13T21:26:07.171Z,101544.97
2022-11-13T21:28:34.689Z,101539.13
2022-11-13T21:31:05.547Z,101532.81
2022-11-13T21:33:39.051Z,101534.53
2022-11-13T21:36:13.342Z,101531.53
2022-11-13T21:38:40.563Z,101540.97
2022-11-13T21:41:23.293Z,101537.78
2022-11-13T21:43:56.795Z,101538.34
2022-11-13T21:46:24.479Z,101536.91
2022-11-13T21:48:55.868Z,101535.72
2022-11-13T21:51:22.747Z,101544.56
2022-11-13T21:53:50.177Z,101543.09
2022-11-13T21:56:17.301Z,101535.13
2022-11-13T21:58:44.515Z,101530.84
2022-11-13T22:01:12.410Z,101533.56
2022-11-13T22:03:39.761Z,101535.59
2022-11-13T22:06:18.297Z,101537.16
2022-11-13T22:08:45.733Z,101526.72
2022-11-13T22:11:12.557Z,101527.63
2022-11-13T22:13:40.371Z,101528.41
2022-11-13T22:16:08.054Z,101521.16
2022-11-13T22:18:37.078Z,101523.16
2022-11-13T22:21:08.470Z,101522.34
2022-11-13T22:23:35.608Z,101512.72
2022-11-13T22:26:06.632Z,101514.78
2022-11-13T22:28:34.282Z,101520.59
2022-11-13T22:31:01.501Z,101518.47
2022-11-13T22:33:31.336Z,101521.31
2022-11-13T22:36:08.699Z,101514.84
2022-11-13T22:38:35.681Z,101523.94
2022-11-13T22:41:06.514Z,101516.69
2022-11-13T22:43:37.211Z,101517.25
2022-11-13T22:46:07.789Z,101510.34
2022-11-13T22:48:35.134Z,101507.03
2022-11-13T22:51:15.379Z,101506.50
2022-11-13T22:53:43.733Z,101495.38
2022-11-13T22:56:12.277Z,101498.16
2022-11-13T22:58:39.157Z,101489.44
2022-11-13T23:01:06.835Z,101503.00
2022-11-13T23:03:36.673Z,101500.91
2022-11-13T23:06:03.453Z,101512.78
2022-11-13T23:08:31.379Z,101508.00
2022-11-13T23:10:58.610Z,101511.00
2022-11-13T23:13:25.459Z,101518.63
2022-11-13T23:15:52.320Z,101514.44
2022-11-13T23:18:19.068Z,101515.34
2022-11-13T23:20:47.581Z,101518.97
2022-11-13T23:23:15.254Z,101512.31
2022-11-13T23:25:42.030Z,101520.59
2022-11-13T23:28:08.650Z,101530.62
2022-11-13T23:30:35.367Z,101531.81
2022-11-13T23:33:02.040Z,101528.94
2022-11-13T23:35:28.658Z,101528.84
2022-11-13T23:37:55.393Z,101522.53
2022-11-13T23:40:22.198Z,101516.28
2022-11-13T23:42:55.586Z,101511.41
2022-11-13T23:45:22.657Z,101507.38
2022-11-13T23:47:49.334Z,101505.47
2022-11-13T23:50:16.311Z,101507.72
2022-11-13T23:52:43.197Z,101499.00
2022-11-13T23:55:09.980Z,101501.47
2022-11-13T23:57:36.622Z,101489.03
